Time;durP1;ratioP1;P1;durP2;ratioP2;P2;SDS_P1;SDS_P2;PMS_P1;PMS_P2;Temp;Humidity;BMP_temperature;BMP_pressure;BME280_temperature;BME280_humidity;BME280_pressure;Samples;Min_cycle;Max_cycle;Signal;HPM_P1;HPM_P2
2023/08/09 00:01:36;;;;;;;4.00;3.10;;;;;;;13.43;100.00;98785.14;109476;1253;60263;-76
2023/08/09 00:04:03;;;;;;;3.30;2.50;;;;;;;13.45;100.00;98786.04;109518;1254;63713;-77
2023/08/09 00:06:30;;;;;;;3.50;2.70;;;;;;;13.47;100.00;98785.54;109583;1251;58968;-77
2023/08/09 00:08:56;;;;;;;3.50;2.70;;;;;;;13.49;100.00;98785.89;109380;1252;58908;-77
2023/08/09 00:11:23;;;;;;;3.00;2.70;;;;;;;13.51;100.00;98784.77;109509;1253;65889;-76
2023/08/09 00:13:49;;;;;;;3.20;2.90;;;;;;;13.56;100.00;98780.30;109519;1253;60181;-76
2023/08/09 00:16:16;;;;;;;3.00;2.20;;;;;;;13.56;100.00;98782.79;109488;1253;62872;-77
2023/08/09 00:18:42;;;;;;;2.90;2.70;;;;;;;13.55;100.00;98775.87;109485;1252;59047;-77
2023/08/09 00:21:09;;;;;;;3.80;2.70;;;;;;;13.56;100.00;98778.83;109554;1253;58773;-78
2023/08/09 00:23:36;;;;;;;3.00;2.80;;;;;;;13.57;100.00;98775.56;109409;1252;65980;-77
2023/08/09 00:26:02;;;;;;;3.00;2.60;;;;;;;13.59;100.00;98774.47;109480;1253;59839;-77
2023/08/09 00:28:29;;;;;;;3.10;2.80;;;;;;;13.60;100.00;98771.74;109518;1252;62689;-76
2023/08/09 00:30:55;;;;;;;3.30;2.70;;;;;;;13.60;100.00;98771.05;109493;1252;58954;-77
2023/08/09 00:33:22;;;;;;;3.10;2.80;;;;;;;13.63;100.00;98772.73;109571;1251;59123;-77
2023/08/09 00:35:49;;;;;;;3.20;2.90;;;;;;;13.65;100.00;98773.17;109496;1254;65737;-77
2023/08/09 00:38:16;;;;;;;3.50;3.20;;;;;;;13.66;100.00;98777.70;109507;1253;59246;-77
2023/08/09 00:40:42;;;;;;;3.50;3.20;;;;;;;13.63;100.00;98779.70;109473;1254;62884;-76
2023/08/09 00:43:09;;;;;;;3.50;3.20;;;;;;;13.64;100.00;98775.73;109349;1253;172467;-77
2023/08/09 00:45:40;;;;;;;3.90;2.70;;;;;;;13.65;100.00;98775.46;109397;1253;60426;-78
2023/08/09 00:48:07;;;;;;;3.80;3.40;;;;;;;13.65;100.00;98773.29;109543;1253;66171;-77
2023/08/09 00:50:33;;;;;;;4.90;3.10;;;;;;;13.66;100.00;98773.44;109502;1253;60212;-77
2023/08/09 00:53:02;;;;;;;3.50;3.20;;;;;;;13.70;100.00;98776.13;109505;1254;62661;-77
2023/08/09 00:55:28;;;;;;;3.50;3.20;;;;;;;13.70;100.00;98775.20;109497;1254;58997;-76
2023/08/09 00:57:55;;;;;;;3.90;3.50;;;;;;;13.69;100.00;98775.33;109515;1254;58966;-77
2023/08/09 01:00:21;;;;;;;5.90;3.60;;;;;;;13.67;100.00;98777.27;109480;1254;64818;-76
2023/08/09 01:02:48;;;;;;;4.30;3.90;;;;;;;13.67;100.00;98779.39;109498;1254;61257;-77
2023/08/09 01:05:15;;;;;;;4.00;3.60;;;;;;;13.69;100.00;98781.23;109531;1254;65167;-77
2023/08/09 01:07:53;;;;;;;6.60;3.30;;;;;;;13.67;100.00;98782.81;109567;1252;58940;-76
2023/08/09 01:10:28;;;;;;;3.30;3.00;;;;;;;13.67;100.00;98778.67;109537;1251;59168;-76
2023/08/09 01:13:01;;;;;;;5.00;3.60;;;;;;;13.67;100.00;98779.96;109479;1254;75440;-76
2023/08/09 01:15:30;;;;;;;3.70;3.20;;;;;;;13.67;100.00;98782.95;109532;1254;59901;-76
2023/08/09 01:17:58;;;;;;;4.20;3.80;;;;;;;13.67;100.00;98786.16;109463;1254;64072;-76
2023/08/09 01:20:26;;;;;;;4.10;3.70;;;;;;;13.65;100.00;98792.03;109342;1253;59054;-76
2023/08/09 01:23:03;;;;;;;4.00;3.70;;;;;;;13.64;100.00;98792.67;109420;1254;59056;-77
2023/08/09 01:25:31;;;;;;;4.10;3.70;;;;;;;13.68;100.00;98795.05;109466;1255;65879;-77
2023/08/09 01:27:59;;;;;;;5.00;4.10;;;;;;;13.69;100.00;98799.07;109525;1252;59149;-76
2023/08/09 01:30:26;;;;;;;4.10;3.80;;;;;;;13.67;100.00;98798.67;109477;1253;64149;-77
2023/08/09 01:32:53;;;;;;;4.60;4.20;;;;;;;13.64;100.00;98800.86;109519;1253;58974;-77
2023/08/09 01:35:20;;;;;;;4.50;4.10;;;;;;;13.65;100.00;98799.39;109549;1253;59005;-76
2023/08/09 01:37:54;;;;;;;4.40;4.00;;;;;;;13.64;100.00;98802.84;109330;1252;65863;-76
2023/08/09 01:40:22;;;;;;;4.50;4.10;;;;;;;13.63;100.00;98800.61;109537;1254;60110;-76
2023/08/09 01:42:51;;;;;;;4.30;3.90;;;;;;;13.62;100.00;98799.42;109480;1253;64882;-76
2023/08/09 01:45:19;;;;;;;4.70;4.30;;;;;;;13.63;100.00;98802.41;109493;1252;59035;-76
2023/08/09 01:47:46;;;;;;;5.20;4.70;;;;;;;13.63;100.00;98801.38;109519;1253;59039;-76
2023/08/09 01:50:24;;;;;;;5.00;4.60;;;;;;;13.62;100.00;98800.17;109540;1252;66147;-77
2023/08/09 01:52:55;;;;;;;5.10;4.40;;;;;;;13.63;100.00;98800.80;109533;1253;59029;-76
2023/08/09 01:55:24;;;;;;;4.60;4.20;;;;;;;13.64;100.00;98804.83;109453;1253;62851;-77
2023/08/09 01:57:51;;;;;;;5.40;4.70;;;;;;;13.67;100.00;98806.85;109523;1253;59073;-77
2023/08/09 02:00:30;;;;;;;6.40;4.70;;;;;;;13.66;100.00;98802.71;109474;1254;59065;-76
2023/08/09 02:02:57;;;;;;;5.00;4.60;;;;;;;13.65;100.00;98802.94;109525;1251;66081;-77
2023/08/09 02:05:23;;;;;;;5.00;4.20;;;;;;;13.65;100.00;98805.79;109578;1252;61008;-76
2023/08/09 02:07:50;;;;;;;4.90;4.40;;;;;;;13.64;100.00;98805.36;109473;1254;73786;-76
2023/08/09 02:10:17;;;;;;;5.20;4.70;;;;;;;13.62;100.00;98807.63;109480;1253;58944;-77
2023/08/09 02:12:47;;;;;;;6.00;5.20;;;;;;;13.62;100.00;98803.38;109505;1252;58996;-77
2023/08/09 02:15:19;;;;;;;5.90;5.40;;;;;;;13.61;100.00;98806.27;109579;1253;64534;-77
2023/08/09 02:17:46;;;;;;;5.40;4.90;;;;;;;13.60;100.00;98808.16;109556;1254;59030;-77
2023/08/09 02:20:13;;;;;;;5.90;5.20;;;;;;;13.59;100.00;98808.60;109531;1254;64032;-77
2023/08/09 02:22:40;;;;;;;5.10;4.60;;;;;;;13.58;100.00;98808.17;109500;1253;59466;-77
2023/08/09 02:25:10;;;;;;;5.90;5.40;;;;;;;13.58;100.00;98805.14;109509;1253;61472;-78
2023/08/09 02:27:37;;;;;;;6.40;5.90;;;;;;;13.57;100.00;98805.86;109530;1254;66014;-77
2023/08/09 02:30:04;;;;;;;9.40;8.60;;;;;;;13.58;100.00;98804.38;109551;1254;60221;-77
2023/08/09 02:32:32;;;;;;;7.40;6.80;;;;;;;13.57;100.00;98805.87;109361;1254;62519;-77
2023/08/09 02:34:59;;;;;;;7.20;6.60;;;;;;;13.53;100.00;98812.30;109560;1252;58954;-78
2023/08/09 02:37:26;;;;;;;7.50;6.80;;;;;;;13.52;100.00;98812.01;109538;1253;59079;-77
2023/08/09 02:39:53;;;;;;;6.90;6.00;;;;;;;13.54;100.00;98811.38;109536;1253;64809;-77
2023/08/09 02:42:20;;;;;;;5.70;5.20;;;;;;;13.54;100.00;98812.60;109582;1253;60115;-77
2023/08/09 02:44:47;;;;;;;6.40;5.90;;;;;;;13.56;100.00;98814.02;109535;1253;63840;-77
2023/08/09 02:47:13;;;;;;;6.10;5.60;;;;;;;13.60;100.00;98810.50;109580;1253;58953;-78
2023/08/09 02:49:40;;;;;;;6.10;5.20;;;;;;;13.60;100.00;98809.02;109559;1254;60207;-77
2023/08/09 02:52:07;;;;;;;5.90;5.40;;;;;;;13.60;100.00;98805.63;109507;1253;65862;-78
2023/08/09 02:54:33;;;;;;;5.30;4.90;;;;;;;13.57;100.00;98806.64;109373;1253;59084;-76
2023/08/09 02:57:00;;;;;;;6.40;5.60;;;;;;;13.56;100.00;98807.41;109502;1254;65056;-77
2023/08/09 02:59:26;;;;;;;6.20;5.70;;;;;;;13.56;100.00;98809.59;109415;1253;59081;-77
2023/08/09 03:01:53;;;;;;;6.90;6.30;;;;;;;13.56;100.00;98809.20;109582;1254;59019;-76
2023/08/09 03:04:19;;;;;;;7.90;7.20;;;;;;;13.56;100.00;98809.88;109505;1254;58981;-76
2023/08/09 03:06:46;;;;;;;8.50;7.70;;;;;;;13.56;100.00;98802.75;109531;1253;61280;-76
2023/08/09 03:09:13;;;;;;;8.30;7.50;;;;;;;13.57;100.00;98803.09;109560;1254;62857;-76
2023/08/09 03:11:39;;;;;;;8.00;7.20;;;;;;;13.56;100.00;98797.62;109519;1252;58927;-77
2023/08/09 03:14:06;;;;;;;9.10;8.30;;;;;;;13.56;100.00;98804.56;109511;1254;61379;-76
2023/08/09 03:16:32;;;;;;;8.60;7.90;;;;;;;13.57;100.00;98803.21;109337;1251;64487;-76
2023/08/09 03:18:59;;;;;;;8.00;7.30;;;;;;;13.60;100.00;98802.81;109574;1254;59180;-77
2023/08/09 03:21:26;;;;;;;6.90;6.20;;;;;;;13.59;100.00;98804.84;109474;1253;73709;-77
2023/08/09 03:23:53;;;;;;;6.20;5.60;;;;;;;13.58;100.00;98804.39;109522;1252;58941;-76
2023/08/09 03:26:19;;;;;;;6.70;6.10;;;;;;;13.56;100.00;98803.16;109248;1253;59123;-76
2023/08/09 03:28:46;;;;;;;6.80;6.20;;;;;;;13.54;100.00;98807.10;109527;1252;67217;-76
2023/08/09 03:31:13;;;;;;;6.70;6.10;;;;;;;13.50;100.00;98805.73;109333;1254;60027;-76
2023/08/09 03:33:39;;;;;;;6.50;5.70;;;;;;;13.46;100.00;98805.80;109520;1252;64041;-76
2023/08/09 03:36:06;;;;;;;9.50;5.80;;;;;;;13.41;100.00;98803.98;109480;1253;58990;-76
2023/08/09 03:38:33;;;;;;;6.60;5.50;;;;;;;13.39;100.00;98806.16;109516;1253;58943;-76
2023/08/09 03:40:59;;;;;;;6.50;5.80;;;;;;;13.37;100.00;98804.13;109496;1252;65849;-76
2023/08/09 03:43:26;;;;;;;7.50;5.90;;;;;;;13.37;100.00;98802.58;109519;1254;60243;-76
2023/08/09 03:45:53;;;;;;;6.40;5.70;;;;;;;13.34;100.00;98803.66;109528;1252;64996;-77
2023/08/09 03:48:19;;;;;;;6.30;5.70;;;;;;;13.34;100.00;98801.70;109501;1254;58935;-76
2023/08/09 03:50:46;;;;;;;7.40;6.70;;;;;;;13.34;100.00;98803.47;109551;1253;59022;-76
2023/08/09 03:53:12;;;;;;;7.40;6.60;;;;;;;13.36;100.00;98803.14;109539;1253;74690;-77
2023/08/09 03:55:39;;;;;;;12.80;10.20;;;;;;;13.38;100.00;98800.17;109536;1251;59860;-77
2023/08/09 03:58:06;;;;;;;13.70;12.30;;;;;;;13.43;100.00;98799.60;109530;1253;63968;-76
2023/08/09 04:00:33;;;;;;;9.50;8.30;;;;;;;13.43;100.00;98795.44;109511;1253;60606;-75
2023/08/09 04:02:59;;;;;;;8.80;7.90;;;;;;;13.45;100.00;98794.39;109283;1254;58984;-76
2023/08/09 04:05:28;;;;;;;7.20;5.90;;;;;;;13.48;100.00;98791.30;109537;1254;64818;-76
2023/08/09 04:07:56;;;;;;;6.30;5.70;;;;;;;13.50;100.00;98789.88;109560;1252;59863;-77
2023/08/09 04:10:23;;;;;;;5.90;5.40;;;;;;;13.52;100.00;98790.25;109484;1252;64747;-77
2023/08/09 04:12:50;;;;;;;7.00;6.00;;;;;;;13.53;100.00;98794.25;109500;1254;59047;-76
2023/08/09 04:15:16;;;;;;;6.20;5.60;;;;;;;13.56;100.00;98800.11;109499;1253;58986;-77
2023/08/09 04:17:43;;;;;;;8.80;7.80;;;;;;;13.59;100.00;98800.39;109495;1252;59705;-76
2023/08/09 04:20:11;;;;;;;6.30;5.70;;;;;;;13.60;100.00;98799.39;109509;1253;58955;-78
2023/08/09 04:22:38;;;;;;;6.60;6.00;;;;;;;13.66;100.00;98806.63;109333;1253;62479;-77
2023/08/09 04:25:05;;;;;;;6.00;5.40;;;;;;;13.72;100.00;98807.37;109486;1253;59067;-76
2023/08/09 04:27:33;;;;;;;6.90;6.20;;;;;;;13.77;100.00;98807.09;109371;1252;59153;-77
2023/08/09 04:30:00;;;;;;;8.80;5.40;;;;;;;13.84;100.00;98804.24;109538;1251;64520;-76
2023/08/09 04:32:27;;;;;;;6.40;5.50;;;;;;;13.92;100.00;98801.58;109548;1251;59980;-77
2023/08/09 04:34:53;;;;;;;6.90;5.50;;;;;;;14.03;100.00;98806.23;109322;1251;62602;-77
2023/08/09 04:37:20;;;;;;;7.20;5.50;;;;;;;14.16;100.00;98802.06;109530;1253;58942;-76
2023/08/09 04:39:46;;;;;;;6.10;4.90;;;;;;;14.28;100.00;98800.88;109551;1253;59056;-76
2023/08/09 04:42:13;;;;;;;7.10;5.10;;;;;;;14.40;100.00;98800.73;109543;1252;65806;-76
2023/08/09 04:44:40;;;;;;;6.20;4.80;;;;;;;14.51;100.00;98800.50;109591;1253;61337;-77
2023/08/09 04:47:06;;;;;;;7.50;5.10;;;;;;;14.63;100.00;98802.37;109398;1252;64757;-77
2023/08/09 04:49:33;;;;;;;6.20;5.50;;;;;;;14.74;100.00;98798.77;109512;1252;58959;-76
2023/08/09 04:51:59;;;;;;;7.90;5.90;;;;;;;14.84;100.00;98799.09;109502;1254;59066;-76
2023/08/09 04:54:26;;;;;;;6.10;5.50;;;;;;;14.90;100.00;98806.03;109548;1253;75850;-77
2023/08/09 04:56:52;;;;;;;10.60;6.50;;;;;;;14.96;100.00;98812.68;109372;1253;59980;-77
2023/08/09 04:59:19;;;;;;;8.50;6.50;;;;;;;15.07;100.00;98817.08;109500;1252;65210;-77
2023/08/09 05:01:45;;;;;;;6.90;6.20;;;;;;;15.21;100.00;98820.00;109529;1251;59008;-76
2023/08/09 05:04:12;;;;;;;8.00;6.40;;;;;;;15.31;100.00;98825.39;109538;1252;58980;-76
2023/08/09 05:06:40;;;;;;;7.60;6.50;;;;;;;15.32;100.00;98825.42;109511;1253;65739;-76
2023/08/09 05:09:07;;;;;;;6.90;6.30;;;;;;;15.32;100.00;98831.33;109520;1254;60234;-77
2023/08/09 05:11:33;;;;;;;6.10;5.40;;;;;;;15.32;100.00;98829.41;109525;1253;62828;-76
2023/08/09 05:14:00;;;;;;;8.20;5.80;;;;;;;15.33;100.00;98827.50;109559;1252;58984;-77
2023/08/09 05:16:26;;;;;;;7.70;5.20;;;;;;;15.32;100.00;98830.64;109559;1253;59047;-76
2023/08/09 05:18:53;;;;;;;5.60;5.10;;;;;;;15.32;100.00;98827.27;109495;1253;67172;-77
2023/08/09 05:21:19;;;;;;;7.10;5.50;;;;;;;15.36;100.00;98827.42;109579;1252;58959;-76
2023/08/09 05:23:46;;;;;;;5.00;4.60;;;;;;;15.37;100.00;98829.52;109512;1252;72696;-76
2023/08/09 05:26:13;;;;;;;5.20;4.80;;;;;;;15.42;100.00;98831.20;109513;1253;59027;-76
2023/08/09 05:28:39;;;;;;;5.50;5.00;;;;;;;15.46;100.00;98832.27;109574;1252;58860;-76
2023/08/09 05:31:06;;;;;;;5.80;5.20;;;;;;;15.50;100.00;98833.00;109574;1253;66901;-76
2023/08/09 05:33:33;;;;;;;5.80;4.70;;;;;;;15.58;100.00;98832.79;109517;1251;60414;-76
2023/08/09 05:36:00;;;;;;;5.80;4.70;;;;;;;15.65;100.00;98831.06;109259;1254;64139;-77
2023/08/09 05:38:26;;;;;;;5.00;4.60;;;;;;;15.86;100.00;98828.89;109542;1253;58978;-76
2023/08/09 05:40:54;;;;;;;5.20;4.70;;;;;;;16.34;100.00;98825.16;109574;1252;58965;-76
2023/08/09 05:43:20;;;;;;;8.00;4.50;;;;;;;16.72;100.00;98821.23;109503;1252;65885;-77
2023/08/09 05:45:47;;;;;;;5.10;4.60;;;;;;;17.06;100.00;98824.93;109536;1251;59084;-77
2023/08/09 05:48:13;;;;;;;5.80;5.00;;;;;;;17.40;100.00;98825.77;109347;1251;64076;-76
2023/08/09 05:50:40;;;;;;;4.80;4.40;;;;;;;17.56;100.00;98824.60;109546;1251;58999;-77
2023/08/09 05:53:09;;;;;;;6.00;4.30;;;;;;;18.05;100.00;98827.61;109572;1251;58996;-77
2023/08/09 05:55:36;;;;;;;4.60;3.50;;;;;;;18.84;100.00;98825.17;109548;1250;67147;-78
2023/08/09 05:58:03;;;;;;;3.80;3.50;;;;;;;19.71;100.00;98825.50;109612;1251;59889;-78
2023/08/09 06:00:30;;;;;;;5.90;3.60;;;;;;;20.57;100.00;98820.33;109598;1251;65118;-76
2023/08/09 06:02:59;;;;;;;4.00;3.60;;;;;;;21.25;100.00;98815.55;109600;1251;58958;-77
2023/08/09 06:05:26;;;;;;;3.60;3.40;;;;;;;21.79;100.00;98820.96;109575;1251;58928;-77
2023/08/09 06:07:55;;;;;;;3.70;3.00;;;;;;;22.28;100.00;98821.33;109442;1251;73505;-77
2023/08/09 06:10:23;;;;;;;3.40;3.10;;;;;;;22.70;100.00;98822.62;109618;1251;68748;-76
2023/08/09 06:12:50;;;;;;;4.90;2.70;;;;;;;23.02;100.00;98818.83;109538;1251;62746;-76
2023/08/09 06:15:17;;;;;;;6.00;2.80;;;;;;;23.34;100.00;98819.10;109430;1251;59003;-76
2023/08/09 06:17:44;;;;;;;3.10;2.60;;;;;;;23.65;100.00;98815.23;109396;1253;60656;-75
2023/08/09 06:20:14;;;;;;;2.60;2.20;;;;;;;23.85;100.00;98818.04;109469;1253;64881;-76
2023/08/09 06:22:41;;;;;;;4.20;2.20;;;;;;;23.92;100.00;98820.21;109557;1253;61361;-76
2023/08/09 06:25:09;;;;;;;3.60;2.60;;;;;;;24.06;100.00;98819.23;109558;1253;62491;-76
2023/08/09 06:27:36;;;;;;;3.00;1.90;;;;;;;24.27;100.00;98817.80;109396;1253;59090;-76
2023/08/09 06:30:04;;;;;;;4.00;2.10;;;;;;;24.53;100.00;98820.90;109517;1253;58935;-76
2023/08/09 06:32:31;;;;;;;4.70;2.30;;;;;;;24.77;100.00;98816.92;109120;1254;66141;-76
2023/08/09 06:34:57;;;;;;;2.40;2.20;;;;;;;25.00;100.00;98811.08;109548;1253;60988;-76
2023/08/09 06:37:24;;;;;;;2.90;2.10;;;;;;;25.19;100.00;98810.59;109515;1253;63654;-76
2023/08/09 06:39:50;;;;;;;4.30;2.20;;;;;;;25.34;100.00;98809.23;109476;1253;58997;-76
2023/08/09 06:42:17;;;;;;;3.50;2.20;;;;;;;25.50;100.00;98803.89;109541;1253;59010;-76
2023/08/09 06:44:44;;;;;;;2.30;2.10;;;;;;;25.64;100.00;98803.33;109449;1253;64800;-76
2023/08/09 06:47:11;;;;;;;2.70;2.20;;;;;;;25.76;100.00;98807.23;109558;1253;59367;-77
2023/08/09 06:49:37;;;;;;;2.30;2.10;;;;;;;25.73;100.00;98806.37;109546;1251;62884;-77
2023/08/09 06:52:04;;;;;;;4.00;2.60;;;;;;;25.47;100.00;98805.27;109603;1251;58950;-76
2023/08/09 06:54:31;;;;;;;2.30;2.10;;;;;;;25.32;100.00;98805.40;109628;1251;58937;-76
2023/08/09 06:56:57;;;;;;;4.30;2.60;;;;;;;25.19;100.00;98804.00;109573;1251;64627;-76
2023/08/09 06:59:24;;;;;;;2.50;1.90;;;;;;;25.10;100.00;98804.21;109599;1250;61631;-76
2023/08/09 07:01:50;;;;;;;3.10;1.80;;;;;;;24.96;100.00;98807.58;109601;1251;65199;-76
2023/08/09 07:04:18;;;;;;;4.30;2.30;;;;;;;24.76;100.00;98813.27;109627;1251;58954;-77
2023/08/09 07:06:44;;;;;;;5.90;2.70;;;;;;;24.57;100.00;98818.98;109600;1251;58956;-77
2023/08/09 07:09:12;;;;;;;2.30;2.10;;;;;;;24.45;100.00;98819.05;109643;1251;66088;-77
2023/08/09 07:11:39;;;;;;;4.40;1.90;;;;;;;24.42;100.00;98817.98;109640;1251;59848;-77
2023/08/09 07:14:06;;;;;;;1.80;1.60;;;;;;;24.37;100.00;98820.58;109559;1251;63736;-77
2023/08/09 07:16:33;;;;;;;2.80;2.00;;;;;;;24.40;100.00;98823.69;109611;1251;58996;-77
2023/08/09 07:18:59;;;;;;;2.30;1.80;;;;;;;24.43;100.00;98826.38;109465;1251;59720;-79
2023/08/09 07:21:27;;;;;;;3.00;2.50;;;;;;;24.37;100.00;98819.61;109592;1251;65855;-76
2023/08/09 07:23:54;;;;;;;3.50;2.20;;;;;;;24.26;100.00;98816.71;109660;1251;59933;-76
2023/08/09 07:26:21;;;;;;;1.80;1.70;;;;;;;24.09;100.00;98816.54;109646;1251;62896;-78
2023/08/09 07:28:48;;;;;;;3.90;1.90;;;;;;;23.91;100.00;98814.38;109611;1251;59028;-78
2023/08/09 07:31:22;;;;;;;3.40;1.50;;;;;;;23.82;100.00;98814.16;109485;1251;59004;-77
2023/08/09 07:33:49;;;;;;;3.60;1.70;;;;;;;23.76;100.00;98818.69;109633;1251;64402;-78
2023/08/09 07:36:16;;;;;;;1.30;1.20;;;;;;;23.56;100.00;98818.17;109562;1251;60990;-78
2023/08/09 07:38:43;;;;;;;1.70;1.30;;;;;;;23.35;100.00;98818.10;109424;1251;64181;-79
2023/08/09 07:41:10;;;;;;;2.10;1.60;;;;;;;23.27;100.00;98816.05;109423;1251;59085;-78
2023/08/09 07:43:37;;;;;;;2.50;1.40;;;;;;;23.24;100.00;98816.00;109596;1251;59118;-78
2023/08/09 07:46:05;;;;;;;2.30;1.60;;;;;;;23.25;100.00;98815.64;109624;1251;65741;-77
2023/08/09 07:48:33;;;;;;;2.40;1.80;;;;;;;23.25;100.00;98814.21;109688;1251;60328;-76
2023/08/09 07:51:00;;;;;;;2.30;1.40;;;;;;;23.11;100.00;98815.50;109636;1251;64833;-78
2023/08/09 07:53:27;;;;;;;1.80;1.40;;;;;;;22.94;100.00;98814.27;109580;1251;58967;-76
2023/08/09 07:55:53;;;;;;;1.60;1.50;;;;;;;22.83;100.00;98810.77;109630;1251;58917;-77
2023/08/09 07:58:20;;;;;;;3.50;1.40;;;;;;;22.74;100.00;98812.90;109668;1251;66143;-81
2023/08/09 08:00:47;;;;;;;3.60;1.80;;;;;;;22.71;100.00;98809.34;109655;1251;59026;-80
2023/08/09 08:03:14;;;;;;;2.20;1.50;;;;;;;22.73;100.00;98807.86;109572;1251;63753;-81
2023/08/09 08:05:40;;;;;;;1.70;1.60;;;;;;;22.79;100.00;98810.48;109619;1251;58944;-77
2023/08/09 08:08:09;;;;;;;2.40;1.40;;;;;;;22.92;100.00;98803.65;109645;1251;58937;-77
2023/08/09 08:10:35;;;;;;;1.80;1.30;;;;;;;23.15;100.00;98799.23;109669;1251;66686;-77
2023/08/09 08:13:02;;;;;;;1.90;1.30;;;;;;;23.42;100.00;98800.38;109638;1251;61357;-77
2023/08/09 08:15:28;;;;;;;2.60;1.40;;;;;;;23.59;100.00;98803.14;109593;1251;64201;-77
2023/08/09 08:17:55;;;;;;;2.10;1.50;;;;;;;23.64;100.00;98802.25;109655;1251;58930;-77
2023/08/09 08:20:22;;;;;;;2.40;1.60;;;;;;;23.72;100.00;98804.91;109702;1251;59010;-77
2023/08/09 08:22:50;;;;;;;1.30;1.20;;;;;;;23.87;100.00;98807.44;109629;1251;66831;-78
2023/08/09 08:25:17;;;;;;;2.30;1.50;;;;;;;24.03;100.00;98805.48;109628;1250;60056;-78
2023/08/09 08:27:45;;;;;;;2.50;1.70;;;;;;;24.14;100.00;98807.48;109577;1251;62534;-76
2023/08/09 08:30:14;;;;;;;1.70;1.60;;;;;;;24.25;100.00;98809.33;109634;1251;59156;-77
2023/08/09 08:32:41;;;;;;;3.70;1.50;;;;;;;24.38;100.00;98811.36;109392;1254;58948;-77
2023/08/09 08:35:11;;;;;;;1.80;1.30;;;;;;;24.53;100.00;98810.86;109423;1254;66966;-78
2023/08/09 08:37:38;;;;;;;1.80;1.20;;;;;;;24.62;100.00;98813.19;109385;1254;61371;-77
2023/08/09 08:40:19;;;;;;;3.40;1.40;;;;;;;24.59;100.00;98814.64;109367;1254;63992;-75
2023/08/09 08:42:47;;;;;;;3.00;1.20;;;;;;;24.56;100.00;98817.13;109439;1254;59023;-76
2023/08/09 08:45:15;;;;;;;1.80;1.40;;;;;;;24.62;100.00;98814.48;109433;1254;59114;-77
2023/08/09 08:47:43;;;;;;;1.50;1.30;;;;;;;24.82;100.00;98811.70;109377;1254;67190;-76
2023/08/09 08:50:12;;;;;;;1.50;1.30;;;;;;;24.94;100.00;98809.65;109417;1254;61520;-76
2023/08/09 08:52:42;;;;;;;1.40;1.10;;;;;;;24.88;100.00;98810.44;109259;1254;63993;-76
2023/08/09 08:55:10;;;;;;;2.20;1.40;;;;;;;24.71;100.00;98810.87;109358;1254;58941;-76
2023/08/09 08:57:38;;;;;;;1.30;1.20;;;;;;;24.63;100.00;98808.92;109391;1254;59029;-76
2023/08/09 09:00:17;;;;;;;2.40;1.60;;;;;;;24.61;100.00;98807.86;109420;1254;64653;-76
2023/08/09 09:02:44;;;;;;;1.60;1.30;;;;;;;24.73;100.00;98800.99;109184;1254;59822;-76
2023/08/09 09:05:16;;;;;;;1.20;1.10;;;;;;;24.73;100.00;98799.49;109633;1251;63961;-76
2023/08/09 09:07:50;;;;;;;1.30;1.20;;;;;;;24.65;100.00;98800.82;109544;1251;58964;-75
2023/08/09 09:10:19;;;;;;;2.50;1.60;;;;;;;24.68;100.00;98799.86;109654;1251;59012;-76
2023/08/09 09:12:49;;;;;;;3.40;1.30;;;;;;;24.71;100.00;98799.46;109640;1251;64824;-76
2023/08/09 09:15:17;;;;;;;1.30;1.20;;;;;;;24.82;100.00;98798.59;109482;1251;60184;-76
2023/08/09 09:17:44;;;;;;;2.10;1.40;;;;;;;24.87;100.00;98799.45;109621;1251;62836;-76
2023/08/09 09:20:20;;;;;;;1.40;1.30;;;;;;;24.85;100.00;98800.27;109635;1251;58930;-76
2023/08/09 09:22:48;;;;;;;1.80;1.40;;;;;;;24.71;100.00;98802.02;109457;1251;59114;-76
2023/08/09 09:25:17;;;;;;;2.40;1.60;;;;;;;24.44;100.00;98806.73;109628;1251;66013;-76
2023/08/09 09:27:47;;;;;;;2.30;1.50;;;;;;;24.21;100.00;98808.81;109649;1251;60060;-76
2023/08/09 09:30:13;;;;;;;2.20;1.50;;;;;;;24.02;100.00;98809.44;109652;1251;62858;-75
2023/08/09 09:32:59;;;;;;;2.30;1.40;;;;;;;23.84;100.00;98811.08;109601;1252;58904;-75
2023/08/09 09:35:28;;;;;;;3.50;1.80;;;;;;;23.71;100.00;98808.69;109563;1251;58992;-76
2023/08/09 09:37:58;;;;;;;3.20;2.10;;;;;;;23.65;100.00;98810.13;109637;1251;64863;-75
2023/08/09 09:40:33;;;;;;;3.30;1.50;;;;;;;23.69;100.00;98806.73;109699;1251;59121;-76
2023/08/09 09:43:01;;;;;;;1.80;1.60;;;;;;;23.92;100.00;98806.67;109615;1251;62846;-77
2023/08/09 09:45:30;;;;;;;2.00;1.50;;;;;;;24.20;100.00;98807.50;109645;1251;58952;-77
2023/08/09 09:47:59;;;;;;;2.30;1.90;;;;;;;24.48;100.00;98807.79;109655;1251;59019;-76
2023/08/09 09:50:27;;;;;;;2.00;1.50;;;;;;;24.69;100.00;98807.63;109592;1250;64854;-74
2023/08/09 09:52:55;;;;;;;2.50;1.80;;;;;;;24.66;100.00;98809.91;109681;1250;67827;-75
2023/08/09 09:55:28;;;;;;;2.90;1.80;;;;;;;24.55;100.00;98812.42;109591;1251;64152;-75
2023/08/09 09:57:56;;;;;;;2.70;1.80;;;;;;;24.25;100.00;98808.69;109420;1251;59018;-76
2023/08/09 10:00:25;;;;;;;2.80;1.70;;;;;;;23.93;100.00;98805.27;109634;1251;61142;-75
2023/08/09 10:02:53;;;;;;;4.70;2.00;;;;;;;23.60;100.00;98802.78;109623;1250;66118;-75
2023/08/09 10:05:26;;;;;;;1.90;1.70;;;;;;;23.38;100.00;98807.70;109689;1251;58992;-75
2023/08/09 10:07:53;;;;;;;1.90;1.80;;;;;;;23.13;100.00;98801.91;109464;1251;64087;-75
2023/08/09 10:10:20;;;;;;;2.80;2.50;;;;;;;22.99;100.00;98797.48;109670;1251;58922;-76
2023/08/09 10:12:53;;;;;;;2.30;2.00;;;;;;;22.92;100.00;98795.40;109675;1251;58939;-76
2023/08/09 10:15:28;;;;;;;2.20;2.00;;;;;;;22.93;100.00;98789.95;109595;1251;66041;-76
2023/08/09 10:18:15;;;;;;;2.20;1.90;;;;;;;22.93;100.00;98795.42;109630;1251;59803;-77
2023/08/09 10:20:44;;;;;;;1.80;1.40;;;;;;;22.73;100.00;98805.15;109574;1251;63779;-76
2023/08/09 10:23:25;;;;;;;3.00;1.40;;;;;;;22.29;100.00;98816.87;109537;1255;59241;-76
2023/08/09 10:25:54;;;;;;;2.30;1.60;;;;;;;21.74;100.00;98824.59;109604;1251;59872;-76
2023/08/09 10:28:42;;;;;;;3.40;1.90;;;;;;;21.41;100.00;98827.66;109604;1251;66172;-76
2023/08/09 10:31:08;;;;;;;4.10;1.80;;;;;;;21.10;100.00;98831.32;109610;1250;59081;-76
2023/08/09 10:33:35;;;;;;;1.90;1.50;;;;;;;21.02;100.00;98834.11;109603;1251;65213;-76
2023/08/09 10:36:02;;;;;;;2.70;1.70;;;;;;;21.04;100.00;98834.24;109624;1251;58947;-76
2023/08/09 10:38:32;;;;;;;2.40;2.10;;;;;;;21.14;100.00;98838.65;109641;1251;58974;-76
2023/08/09 10:41:07;;;;;;;3.40;1.90;;;;;;;21.23;100.00;98840.21;109655;1251;65814;-76
2023/08/09 10:43:34;;;;;;;2.70;1.50;;;;;;;21.34;100.00;98839.41;109645;1251;61209;-76
2023/08/09 10:46:23;;;;;;;2.80;2.00;;;;;;;21.37;100.00;98842.59;109440;1251;62928;-76
2023/08/09 10:48:51;;;;;;;3.10;2.10;;;;;;;21.26;100.00;98846.92;109606;1251;59006;-76
2023/08/09 10:51:20;;;;;;;2.80;1.90;;;;;;;21.09;100.00;98852.79;109658;1251;59004;-76
2023/08/09 10:53:55;;;;;;;3.40;2.20;;;;;;;20.75;100.00;98865.63;109642;1251;65749;-76
2023/08/09 10:56:44;;;;;;;5.70;2.10;;;;;;;20.37;100.00;98881.50;109638;1250;61793;-79
2023/08/09 10:59:23;;;;;;;4.90;2.20;;;;;;;20.05;100.00;98883.25;109689;1251;63736;-78
2023/08/09 11:01:50;;;;;;;3.80;1.80;;;;;;;19.76;100.00;98885.09;109412;1251;59049;-78
2023/08/09 11:04:17;;;;;;;3.40;2.40;;;;;;;19.55;100.00;98885.13;109630;1251;59778;-77
2023/08/09 11:06:47;;;;;;;3.50;2.10;;;;;;;19.49;100.00;98884.30;109635;1251;65886;-78
2023/08/09 11:09:17;;;;;;;3.20;2.10;;;;;;;19.59;100.00;98880.17;109607;1251;59196;-78
2023/08/09 11:11:47;;;;;;;;;;;;;;;19.70;100.00;98876.48;109583;1251;65373;-78
2023/08/09 11:14:17;;;;;;;2.40;2.30;;;;;;;19.80;100.00;98874.40;109632;1251;58945;-78
2023/08/09 11:16:45;;;;;;;3.90;2.20;;;;;;;19.86;100.00;98870.66;109640;1251;59083;-77
2023/08/09 11:19:14;;;;;;;2.70;2.50;;;;;;;20.03;100.00;98868.56;109593;1251;64548;-77
2023/08/09 11:21:49;;;;;;;6.70;2.80;;;;;;;20.20;100.00;98867.64;109661;1251;61033;-77